sensor_id;sensor_type;location;lat;lon;timestamp;P1;durP1;ratioP1;P2;durP2;ratioP2
80647;SDS011;70012;0.000;0.000;2023-11-21T00:03:35;7.68;;;4.50;;
80647;SDS011;70012;0.000;0.000;2023-11-21T00:06:02;8.23;;;5.15;;
80647;SDS011;70012;0.000;0.000;2023-11-21T00:08:29;9.45;;;5.15;;
80647;SDS011;70012;0.000;0.000;2023-11-21T00:10:56;6.40;;;4.80;;
80647;SDS011;70012;0.000;0.000;2023-11-21T00:13:23;10.27;;;5.30;;
80647;SDS011;70012;0.000;0.000;2023-11-21T00:15:50;7.53;;;4.57;;
80647;SDS011;70012;0.000;0.000;2023-11-21T00:18:17;8.10;;;5.65;;
80647;SDS011;70012;0.000;0.000;2023-11-21T00:20:44;8.15;;;5.13;;
80647;SDS011;70012;0.000;0.000;2023-11-21T00:23:11;9.80;;;5.45;;
80647;SDS011;70012;0.000;0.000;2023-11-21T00:25:37;13.73;;;4.90;;
80647;SDS011;70012;0.000;0.000;2023-11-21T00:28:06;10.00;;;5.68;;
80647;SDS011;70012;0.000;0.000;2023-11-21T00:33:00;6.47;;;4.68;;
80647;SDS011;70012;0.000;0.000;2023-11-21T00:35:26;10.80;;;5.88;;
80647;SDS011;70012;0.000;0.000;2023-11-21T00:37:53;9.98;;;5.32;;
80647;SDS011;70012;0.000;0.000;2023-11-21T00:40:20;8.85;;;5.50;;
80647;SDS011;70012;0.000;0.000;2023-11-21T00:42:47;10.85;;;5.80;;
80647;SDS011;70012;0.000;0.000;2023-11-21T00:47:41;9.00;;;5.13;;
80647;SDS011;70012;0.000;0.000;2023-11-21T00:50:09;7.43;;;5.13;;
80647;SDS011;70012;0.000;0.000;2023-11-21T00:52:36;8.73;;;5.32;;
80647;SDS011;70012;0.000;0.000;2023-11-21T00:55:04;10.45;;;6.13;;
80647;SDS011;70012;0.000;0.000;2023-11-21T00:57:34;7.93;;;5.60;;
80647;SDS011;70012;0.000;0.000;2023-11-21T01:00:01;9.63;;;5.75;;
80647;SDS011;70012;0.000;0.000;2023-11-21T01:02:30;10.32;;;6.20;;
80647;SDS011;70012;0.000;0.000;2023-11-21T01:04:57;13.38;;;6.22;;
80647;SDS011;70012;0.000;0.000;2023-11-21T01:07:24;11.43;;;6.75;;
80647;SDS011;70012;0.000;0.000;2023-11-21T01:09:50;11.93;;;6.70;;
80647;SDS011;70012;0.000;0.000;2023-11-21T01:12:17;12.77;;;7.35;;
80647;SDS011;70012;0.000;0.000;2023-11-21T01:14:44;14.95;;;6.72;;
80647;SDS011;70012;0.000;0.000;2023-11-21T01:17:12;10.57;;;6.90;;
80647;SDS011;70012;0.000;0.000;2023-11-21T01:22:05;17.20;;;6.82;;
80647;SDS011;70012;0.000;0.000;2023-11-21T01:24:32;12.45;;;6.38;;
80647;SDS011;70012;0.000;0.000;2023-11-21T01:26:59;12.98;;;6.95;;
80647;SDS011;70012;0.000;0.000;2023-11-21T01:29:25;14.27;;;7.50;;
80647;SDS011;70012;0.000;0.000;2023-11-21T01:31:52;14.55;;;6.63;;
80647;SDS011;70012;0.000;0.000;2023-11-21T01:34:19;12.43;;;7.32;;
80647;SDS011;70012;0.000;0.000;2023-11-21T01:36:47;11.82;;;7.38;;
80647;SDS011;70012;0.000;0.000;2023-11-21T01:39:13;16.30;;;7.30;;
80647;SDS011;70012;0.000;0.000;2023-11-21T01:41:42;15.38;;;8.73;;
80647;SDS011;70012;0.000;0.000;2023-11-21T01:44:10;16.65;;;9.07;;
80647;SDS011;70012;0.000;0.000;2023-11-21T01:46:37;16.25;;;9.95;;
80647;SDS011;70012;0.000;0.000;2023-11-21T01:49:05;16.02;;;8.82;;
80647;SDS011;70012;0.000;0.000;2023-11-21T01:51:32;19.58;;;8.15;;
80647;SDS011;70012;0.000;0.000;2023-11-21T01:54:00;15.18;;;8.07;;
80647;SDS011;70012;0.000;0.000;2023-11-21T01:56:27;17.67;;;8.00;;
80647;SDS011;70012;0.000;0.000;2023-11-21T01:58:54;15.63;;;7.80;;
80647;SDS011;70012;0.000;0.000;2023-11-21T02:01:21;15.07;;;7.97;;
80647;SDS011;70012;0.000;0.000;2023-11-21T02:03:47;16.52;;;8.57;;
80647;SDS011;70012;0.000;0.000;2023-11-21T02:08:41;15.52;;;8.15;;
80647;SDS011;70012;0.000;0.000;2023-11-21T02:11:10;15.02;;;8.70;;
80647;SDS011;70012;0.000;0.000;2023-11-21T02:13:39;14.98;;;8.93;;
80647;SDS011;70012;0.000;0.000;2023-11-21T02:16:10;15.93;;;9.18;;
80647;SDS011;70012;0.000;0.000;2023-11-21T02:18:39;15.85;;;9.35;;
80647;SDS011;70012;0.000;0.000;2023-11-21T02:21:06;18.48;;;9.70;;
80647;SDS011;70012;0.000;0.000;2023-11-21T02:23:33;16.88;;;9.13;;
80647;SDS011;70012;0.000;0.000;2023-11-21T02:28:30;20.48;;;9.68;;
80647;SDS011;70012;0.000;0.000;2023-11-21T02:33:25;17.20;;;9.45;;
80647;SDS011;70012;0.000;0.000;2023-11-21T02:35:52;15.65;;;10.20;;
80647;SDS011;70012;0.000;0.000;2023-11-21T02:38:21;16.88;;;9.35;;
80647;SDS011;70012;0.000;0.000;2023-11-21T02:43:16;15.27;;;8.68;;
80647;SDS011;70012;0.000;0.000;2023-11-21T02:45:42;22.48;;;10.50;;
80647;SDS011;70012;0.000;0.000;2023-11-21T02:50:36;19.83;;;10.13;;
80647;SDS011;70012;0.000;0.000;2023-11-21T02:53:03;19.52;;;10.55;;
80647;SDS011;70012;0.000;0.000;2023-11-21T02:55:32;22.35;;;11.60;;
80647;SDS011;70012;0.000;0.000;2023-11-21T02:58:02;18.20;;;11.10;;
80647;SDS011;70012;0.000;0.000;2023-11-21T03:00:30;20.00;;;11.15;;
80647;SDS011;70012;0.000;0.000;2023-11-21T03:02:57;22.60;;;11.50;;
80647;SDS011;70012;0.000;0.000;2023-11-21T03:05:24;16.45;;;10.13;;
80647;SDS011;70012;0.000;0.000;2023-11-21T03:10:17;21.42;;;12.43;;
80647;SDS011;70012;0.000;0.000;2023-11-21T03:12:44;16.77;;;10.60;;
80647;SDS011;70012;0.000;0.000;2023-11-21T03:15:11;20.95;;;10.90;;
80647;SDS011;70012;0.000;0.000;2023-11-21T03:17:38;19.05;;;10.80;;
80647;SDS011;70012;0.000;0.000;2023-11-21T03:22:32;19.30;;;11.25;;
80647;SDS011;70012;0.000;0.000;2023-11-21T03:24:59;19.30;;;10.68;;
80647;SDS011;70012;0.000;0.000;2023-11-21T03:29:53;17.98;;;10.60;;
80647;SDS011;70012;0.000;0.000;2023-11-21T03:32:20;19.52;;;10.30;;
80647;SDS011;70012;0.000;0.000;2023-11-21T03:34:54;20.25;;;11.27;;
80647;SDS011;70012;0.000;0.000;2023-11-21T03:37:23;22.13;;;12.63;;
80647;SDS011;70012;0.000;0.000;2023-11-21T03:39:51;19.05;;;10.75;;
80647;SDS011;70012;0.000;0.000;2023-11-21T03:42:18;21.60;;;11.80;;
80647;SDS011;70012;0.000;0.000;2023-11-21T03:44:44;19.88;;;10.68;;
80647;SDS011;70012;0.000;0.000;2023-11-21T03:49:38;20.85;;;10.98;;
80647;SDS011;70012;0.000;0.000;2023-11-21T03:52:05;20.20;;;10.50;;
80647;SDS011;70012;0.000;0.000;2023-11-21T03:54:34;21.23;;;10.73;;
80647;SDS011;70012;0.000;0.000;2023-11-21T03:57:00;20.58;;;10.63;;
80647;SDS011;70012;0.000;0.000;2023-11-21T03:59:27;21.77;;;10.45;;
80647;SDS011;70012;0.000;0.000;2023-11-21T04:01:57;20.23;;;10.93;;
80647;SDS011;70012;0.000;0.000;2023-11-21T04:04:24;20.73;;;10.25;;
80647;SDS011;70012;0.000;0.000;2023-11-21T04:06:51;17.55;;;10.30;;
80647;SDS011;70012;0.000;0.000;2023-11-21T04:09:18;20.67;;;11.30;;
80647;SDS011;70012;0.000;0.000;2023-11-21T04:11:45;18.88;;;10.57;;
80647;SDS011;70012;0.000;0.000;2023-11-21T04:14:12;19.40;;;11.27;;
80647;SDS011;70012;0.000;0.000;2023-11-21T04:16:40;17.90;;;10.35;;
80647;SDS011;70012;0.000;0.000;2023-11-21T04:19:07;21.85;;;11.15;;
80647;SDS011;70012;0.000;0.000;2023-11-21T04:21:37;19.98;;;10.93;;
80647;SDS011;70012;0.000;0.000;2023-11-21T04:24:05;24.00;;;11.73;;
80647;SDS011;70012;0.000;0.000;2023-11-21T04:26:32;27.27;;;11.15;;
80647;SDS011;70012;0.000;0.000;2023-11-21T04:28:59;19.70;;;11.25;;
80647;SDS011;70012;0.000;0.000;2023-11-21T04:31:26;22.17;;;11.05;;
80647;SDS011;70012;0.000;0.000;2023-11-21T04:33:53;24.85;;;12.00;;
80647;SDS011;70012;0.000;0.000;2023-11-21T04:38:46;21.02;;;9.80;;
80647;SDS011;70012;0.000;0.000;2023-11-21T04:41:13;19.98;;;11.45;;
80647;SDS011;70012;0.000;0.000;2023-11-21T04:46:07;21.65;;;9.88;;
80647;SDS011;70012;0.000;0.000;2023-11-21T04:48:33;21.23;;;9.82;;
80647;SDS011;70012;0.000;0.000;2023-11-21T04:51:00;19.60;;;10.25;;
80647;SDS011;70012;0.000;0.000;2023-11-21T04:53:27;19.00;;;9.75;;
80647;SDS011;70012;0.000;0.000;2023-11-21T04:55:54;17.67;;;9.00;;
80647;SDS011;70012;0.000;0.000;2023-11-21T04:58:21;22.65;;;9.90;;
80647;SDS011;70012;0.000;0.000;2023-11-21T05:03:15;15.85;;;8.32;;
80647;SDS011;70012;0.000;0.000;2023-11-21T05:05:42;17.02;;;9.13;;
80647;SDS011;70012;0.000;0.000;2023-11-21T05:08:09;21.23;;;9.60;;
80647;SDS011;70012;0.000;0.000;2023-11-21T05:10:36;16.33;;;9.02;;
80647;SDS011;70012;0.000;0.000;2023-11-21T05:13:05;17.13;;;9.15;;
80647;SDS011;70012;0.000;0.000;2023-11-21T05:15:36;16.60;;;9.50;;
80647;SDS011;70012;0.000;0.000;2023-11-21T05:18:05;20.33;;;9.68;;
80647;SDS011;70012;0.000;0.000;2023-11-21T05:20:33;23.77;;;10.60;;
80647;SDS011;70012;0.000;0.000;2023-11-21T05:23:01;24.38;;;10.48;;
80647;SDS011;70012;0.000;0.000;2023-11-21T05:27:54;22.20;;;9.82;;
80647;SDS011;70012;0.000;0.000;2023-11-21T05:30:22;19.75;;;10.32;;
80647;SDS011;70012;0.000;0.000;2023-11-21T05:32:49;19.65;;;10.77;;
80647;SDS011;70012;0.000;0.000;2023-11-21T05:37:44;20.98;;;9.93;;
80647;SDS011;70012;0.000;0.000;2023-11-21T05:40:12;20.50;;;11.15;;
80647;SDS011;70012;0.000;0.000;2023-11-21T05:42:39;20.45;;;10.43;;
80647;SDS011;70012;0.000;0.000;2023-11-21T05:45:07;19.10;;;10.50;;
80647;SDS011;70012;0.000;0.000;2023-11-21T05:47:41;21.65;;;10.23;;
80647;SDS011;70012;0.000;0.000;2023-11-21T05:50:10;18.08;;;8.63;;
80647;SDS011;70012;0.000;0.000;2023-11-21T05:52:42;17.67;;;9.07;;
80647;SDS011;70012;0.000;0.000;2023-11-21T05:55:10;19.20;;;9.02;;
80647;SDS011;70012;0.000;0.000;2023-11-21T05:57:37;15.23;;;9.07;;
80647;SDS011;70012;0.000;0.000;2023-11-21T06:00:05;23.38;;;9.52;;
80647;SDS011;70012;0.000;0.000;2023-11-21T06:02:49;17.85;;;9.85;;
80647;SDS011;70012;0.000;0.000;2023-11-21T06:05:24;18.90;;;8.48;;
80647;SDS011;70012;0.000;0.000;2023-11-21T06:07:53;16.75;;;8.25;;
80647;SDS011;70012;0.000;0.000;2023-11-21T06:10:21;18.33;;;8.55;;
80647;SDS011;70012;0.000;0.000;2023-11-21T06:12:51;23.88;;;10.60;;
80647;SDS011;70012;0.000;0.000;2023-11-21T06:15:18;18.88;;;9.73;;
80647;SDS011;70012;0.000;0.000;2023-11-21T06:17:50;19.67;;;8.68;;
80647;SDS011;70012;0.000;0.000;2023-11-21T06:20:21;23.92;;;9.40;;
80647;SDS011;70012;0.000;0.000;2023-11-21T06:22:49;17.40;;;9.20;;
80647;SDS011;70012;0.000;0.000;2023-11-21T06:25:17;20.85;;;9.23;;
80647;SDS011;70012;0.000;0.000;2023-11-21T06:27:45;16.33;;;9.18;;
80647;SDS011;70012;0.000;0.000;2023-11-21T06:30:14;20.38;;;10.05;;
80647;SDS011;70012;0.000;0.000;2023-11-21T06:32:42;19.80;;;9.95;;
80647;SDS011;70012;0.000;0.000;2023-11-21T06:35:13;17.73;;;9.45;;
80647;SDS011;70012;0.000;0.000;2023-11-21T06:37:43;20.38;;;10.57;;
80647;SDS011;70012;0.000;0.000;2023-11-21T06:40:16;21.23;;;10.55;;
80647;SDS011;70012;0.000;0.000;2023-11-21T06:42:45;20.92;;;9.95;;
80647;SDS011;70012;0.000;0.000;2023-11-21T06:45:13;26.63;;;11.75;;
80647;SDS011;70012;0.000;0.000;2023-11-21T06:47:41;22.52;;;10.48;;
80647;SDS011;70012;0.000;0.000;2023-11-21T06:50:09;22.52;;;11.07;;
80647;SDS011;70012;0.000;0.000;2023-11-21T06:55:02;22.60;;;11.48;;
80647;SDS011;70012;0.000;0.000;2023-11-21T06:57:30;24.70;;;10.73;;
80647;SDS011;70012;0.000;0.000;2023-11-21T06:59:57;26.85;;;10.77;;
80647;SDS011;70012;0.000;0.000;2023-11-21T07:02:24;27.50;;;11.77;;
80647;SDS011;70012;0.000;0.000;2023-11-21T07:04:51;26.80;;;11.93;;
80647;SDS011;70012;0.000;0.000;2023-11-21T07:12:11;21.50;;;10.32;;
80647;SDS011;70012;0.000;0.000;2023-11-21T07:14:38;26.00;;;10.90;;
80647;SDS011;70012;0.000;0.000;2023-11-21T07:17:07;24.55;;;12.55;;
80647;SDS011;70012;0.000;0.000;2023-11-21T07:19:34;24.38;;;11.93;;
80647;SDS011;70012;0.000;0.000;2023-11-21T07:22:00;24.95;;;12.38;;
80647;SDS011;70012;0.000;0.000;2023-11-21T07:24:27;28.30;;;11.38;;
80647;SDS011;70012;0.000;0.000;2023-11-21T07:26:54;22.55;;;11.40;;
80647;SDS011;70012;0.000;0.000;2023-11-21T07:29:23;26.27;;;11.23;;
80647;SDS011;70012;0.000;0.000;2023-11-21T07:31:56;21.13;;;11.05;;
80647;SDS011;70012;0.000;0.000;2023-11-21T07:34:23;20.27;;;10.48;;
80647;SDS011;70012;0.000;0.000;2023-11-21T07:39:17;18.45;;;9.38;;
80647;SDS011;70012;0.000;0.000;2023-11-21T07:41:44;23.48;;;9.82;;
80647;SDS011;70012;0.000;0.000;2023-11-21T07:44:18;19.20;;;9.75;;
80647;SDS011;70012;0.000;0.000;2023-11-21T07:46:46;22.23;;;10.02;;
80647;SDS011;70012;0.000;0.000;2023-11-21T07:49:14;19.67;;;10.93;;
80647;SDS011;70012;0.000;0.000;2023-11-21T07:51:47;21.65;;;10.23;;
80647;SDS011;70012;0.000;0.000;2023-11-21T07:54:14;22.88;;;11.13;;
80647;SDS011;70012;0.000;0.000;2023-11-21T07:56:40;20.08;;;10.63;;
80647;SDS011;70012;0.000;0.000;2023-11-21T07:59:07;19.92;;;10.07;;
80647;SDS011;70012;0.000;0.000;2023-11-21T08:01:34;20.08;;;10.35;;
80647;SDS011;70012;0.000;0.000;2023-11-21T08:04:01;20.67;;;11.07;;
80647;SDS011;70012;0.000;0.000;2023-11-21T08:06:31;23.92;;;10.55;;
80647;SDS011;70012;0.000;0.000;2023-11-21T08:08:58;27.30;;;11.77;;
80647;SDS011;70012;0.000;0.000;2023-11-21T08:11:25;20.90;;;11.13;;
80647;SDS011;70012;0.000;0.000;2023-11-21T08:13:57;28.30;;;11.50;;
80647;SDS011;70012;0.000;0.000;2023-11-21T08:16:25;23.05;;;11.07;;
80647;SDS011;70012;0.000;0.000;2023-11-21T08:18:52;25.05;;;11.23;;
80647;SDS011;70012;0.000;0.000;2023-11-21T08:21:19;21.20;;;10.27;;
80647;SDS011;70012;0.000;0.000;2023-11-21T08:23:45;28.15;;;10.98;;
80647;SDS011;70012;0.000;0.000;2023-11-21T08:26:15;25.42;;;10.68;;
80647;SDS011;70012;0.000;0.000;2023-11-21T08:28:42;21.10;;;11.07;;
80647;SDS011;70012;0.000;0.000;2023-11-21T08:31:09;21.85;;;11.95;;
80647;SDS011;70012;0.000;0.000;2023-11-21T08:33:39;23.15;;;11.70;;
80647;SDS011;70012;0.000;0.000;2023-11-21T08:36:09;25.15;;;11.98;;
80647;SDS011;70012;0.000;0.000;2023-11-21T08:38:37;24.27;;;11.90;;
80647;SDS011;70012;0.000;0.000;2023-11-21T08:41:05;29.27;;;14.10;;
80647;SDS011;70012;0.000;0.000;2023-11-21T08:43:34;22.88;;;11.48;;
80647;SDS011;70012;0.000;0.000;2023-11-21T08:46:02;28.60;;;12.20;;
80647;SDS011;70012;0.000;0.000;2023-11-21T08:48:29;22.20;;;11.18;;
80647;SDS011;70012;0.000;0.000;2023-11-21T08:55:50;28.90;;;12.10;;
80647;SDS011;70012;0.000;0.000;2023-11-21T09:00:43;25.45;;;11.68;;
80647;SDS011;70012;0.000;0.000;2023-11-21T09:03:12;27.13;;;11.93;;
80647;SDS011;70012;0.000;0.000;2023-11-21T09:05:39;24.35;;;11.13;;
80647;SDS011;70012;0.000;0.000;2023-11-21T09:08:06;26.65;;;12.60;;
80647;SDS011;70012;0.000;0.000;2023-11-21T09:10:33;27.35;;;11.63;;
80647;SDS011;70012;0.000;0.000;2023-11-21T09:13:03;25.40;;;12.57;;
80647;SDS011;70012;0.000;0.000;2023-11-21T09:15:30;24.10;;;11.48;;
80647;SDS011;70012;0.000;0.000;2023-11-21T09:17:57;23.25;;;11.43;;
80647;SDS011;70012;0.000;0.000;2023-11-21T09:20:24;28.85;;;11.93;;
80647;SDS011;70012;0.000;0.000;2023-11-21T09:25:17;29.42;;;13.98;;
80647;SDS011;70012;0.000;0.000;2023-11-21T09:27:46;26.45;;;12.45;;
80647;SDS011;70012;0.000;0.000;2023-11-21T09:30:13;26.60;;;13.13;;
80647;SDS011;70012;0.000;0.000;2023-11-21T09:32:43;27.90;;;13.35;;
80647;SDS011;70012;0.000;0.000;2023-11-21T09:35:12;28.60;;;12.75;;
80647;SDS011;70012;0.000;0.000;2023-11-21T09:37:41;28.40;;;13.45;;
80647;SDS011;70012;0.000;0.000;2023-11-21T09:40:10;31.80;;;13.38;;
80647;SDS011;70012;0.000;0.000;2023-11-21T09:42:43;25.38;;;12.50;;
80647;SDS011;70012;0.000;0.000;2023-11-21T09:45:28;26.73;;;12.65;;
80647;SDS011;70012;0.000;0.000;2023-11-21T09:48:00;33.75;;;12.15;;
80647;SDS011;70012;0.000;0.000;2023-11-21T09:50:34;26.40;;;10.68;;
80647;SDS011;70012;0.000;0.000;2023-11-21T09:55:43;28.80;;;11.68;;
80647;SDS011;70012;0.000;0.000;2023-11-21T09:58:11;25.83;;;11.13;;
80647;SDS011;70012;0.000;0.000;2023-11-21T10:00:41;24.10;;;10.98;;
80647;SDS011;70012;0.000;0.000;2023-11-21T10:03:09;27.50;;;13.30;;
80647;SDS011;70012;0.000;0.000;2023-11-21T10:05:37;29.83;;;13.27;;
80647;SDS011;70012;0.000;0.000;2023-11-21T10:08:08;25.50;;;11.88;;
80647;SDS011;70012;0.000;0.000;2023-11-21T10:10:36;23.40;;;11.90;;
80647;SDS011;70012;0.000;0.000;2023-11-21T10:13:05;24.67;;;11.57;;
80647;SDS011;70012;0.000;0.000;2023-11-21T10:15:34;26.25;;;11.40;;
80647;SDS011;70012;0.000;0.000;2023-11-21T10:18:02;25.00;;;10.80;;
80647;SDS011;70012;0.000;0.000;2023-11-21T10:20:30;20.20;;;9.57;;
80647;SDS011;70012;0.000;0.000;2023-11-21T10:22:58;21.65;;;10.57;;
80647;SDS011;70012;0.000;0.000;2023-11-21T10:25:25;22.65;;;11.07;;
80647;SDS011;70012;0.000;0.000;2023-11-21T10:30:27;20.58;;;9.50;;
80647;SDS011;70012;0.000;0.000;2023-11-21T10:32:58;23.52;;;10.00;;
80647;SDS011;70012;0.000;0.000;2023-11-21T10:35:33;24.95;;;10.80;;
80647;SDS011;70012;0.000;0.000;2023-11-21T10:38:05;22.52;;;10.25;;
80647;SDS011;70012;0.000;0.000;2023-11-21T10:40:32;23.38;;;9.95;;
80647;SDS011;70012;0.000;0.000;2023-11-21T10:43:05;21.30;;;9.95;;
80647;SDS011;70012;0.000;0.000;2023-11-21T10:45:36;19.10;;;9.80;;
80647;SDS011;70012;0.000;0.000;2023-11-21T10:48:07;18.10;;;9.05;;
80647;SDS011;70012;0.000;0.000;2023-11-21T10:50:35;17.92;;;9.15;;
80647;SDS011;70012;0.000;0.000;2023-11-21T10:53:02;23.90;;;9.88;;
80647;SDS011;70012;0.000;0.000;2023-11-21T10:55:31;19.08;;;9.27;;
80647;SDS011;70012;0.000;0.000;2023-11-21T10:58:00;19.98;;;10.27;;
80647;SDS011;70012;0.000;0.000;2023-11-21T11:00:32;18.15;;;9.88;;
80647;SDS011;70012;0.000;0.000;2023-11-21T11:03:00;20.60;;;9.98;;
80647;SDS011;70012;0.000;0.000;2023-11-21T11:05:27;23.58;;;11.57;;
80647;SDS011;70012;0.000;0.000;2023-11-21T11:07:59;23.67;;;11.70;;
80647;SDS011;70012;0.000;0.000;2023-11-21T11:12:56;26.17;;;12.27;;
80647;SDS011;70012;0.000;0.000;2023-11-21T11:15:25;31.75;;;12.90;;
80647;SDS011;70012;0.000;0.000;2023-11-21T11:17:53;29.83;;;13.25;;
80647;SDS011;70012;0.000;0.000;2023-11-21T11:20:23;25.98;;;11.73;;
80647;SDS011;70012;0.000;0.000;2023-11-21T11:22:59;27.30;;;12.27;;
80647;SDS011;70012;0.000;0.000;2023-11-21T11:25:44;29.98;;;13.05;;
80647;SDS011;70012;0.000;0.000;2023-11-21T11:28:20;28.77;;;13.40;;
80647;SDS011;70012;0.000;0.000;2023-11-21T11:31:13;28.70;;;13.18;;
80647;SDS011;70012;0.000;0.000;2023-11-21T11:33:49;27.55;;;13.18;;
80647;SDS011;70012;0.000;0.000;2023-11-21T11:39:29;26.33;;;12.95;;
80647;SDS011;70012;0.000;0.000;2023-11-21T11:42:08;26.88;;;12.88;;
80647;SDS011;70012;0.000;0.000;2023-11-21T11:47:20;29.70;;;13.70;;
80647;SDS011;70012;0.000;0.000;2023-11-21T11:52:34;30.80;;;13.63;;
80647;SDS011;70012;0.000;0.000;2023-11-21T11:55:03;27.85;;;12.65;;
80647;SDS011;70012;0.000;0.000;2023-11-21T11:57:34;28.70;;;12.85;;
80647;SDS011;70012;0.000;0.000;2023-11-21T12:00:11;25.85;;;12.40;;
80647;SDS011;70012;0.000;0.000;2023-11-21T12:02:48;29.60;;;13.57;;
80647;SDS011;70012;0.000;0.000;2023-11-21T12:05:18;27.30;;;13.25;;
80647;SDS011;70012;0.000;0.000;2023-11-21T12:07:50;26.20;;;12.93;;
80647;SDS011;70012;0.000;0.000;2023-11-21T12:10:21;30.30;;;13.50;;
80647;SDS011;70012;0.000;0.000;2023-11-21T12:12:52;33.72;;;12.93;;
80647;SDS011;70012;0.000;0.000;2023-11-21T12:15:21;28.38;;;13.38;;
80647;SDS011;70012;0.000;0.000;2023-11-21T12:17:48;29.48;;;13.23;;
80647;SDS011;70012;0.000;0.000;2023-11-21T12:20:18;30.40;;;12.90;;
80647;SDS011;70012;0.000;0.000;2023-11-21T12:22:47;27.92;;;12.63;;
80647;SDS011;70012;0.000;0.000;2023-11-21T12:25:16;27.40;;;12.73;;
80647;SDS011;70012;0.000;0.000;2023-11-21T12:27:56;26.85;;;13.32;;
80647;SDS011;70012;0.000;0.000;2023-11-21T12:30:24;27.92;;;13.00;;
80647;SDS011;70012;0.000;0.000;2023-11-21T12:35:25;33.40;;;14.13;;
80647;SDS011;70012;0.000;0.000;2023-11-21T12:37:54;29.83;;;12.90;;
80647;SDS011;70012;0.000;0.000;2023-11-21T12:40:24;33.13;;;14.93;;
80647;SDS011;70012;0.000;0.000;2023-11-21T12:42:52;30.25;;;13.23;;
80647;SDS011;70012;0.000;0.000;2023-11-21T12:50:27;32.45;;;13.32;;
80647;SDS011;70012;0.000;0.000;2023-11-21T12:53:00;33.53;;;14.65;;
80647;SDS011;70012;0.000;0.000;2023-11-21T12:55:31;29.73;;;12.70;;
80647;SDS011;70012;0.000;0.000;2023-11-21T12:58:00;28.85;;;13.52;;
80647;SDS011;70012;0.000;0.000;2023-11-21T13:03:12;25.20;;;10.65;;
80647;SDS011;70012;0.000;0.000;2023-11-21T13:05:45;26.42;;;12.02;;
80647;SDS011;70012;0.000;0.000;2023-11-21T13:08:19;25.15;;;10.95;;
80647;SDS011;70012;0.000;0.000;2023-11-21T13:10:53;25.15;;;10.40;;
80647;SDS011;70012;0.000;0.000;2023-11-21T13:13:24;28.02;;;10.25;;
80647;SDS011;70012;0.000;0.000;2023-11-21T13:16:01;21.25;;;9.57;;
80647;SDS011;70012;0.000;0.000;2023-11-21T13:18:32;18.67;;;9.20;;
80647;SDS011;70012;0.000;0.000;2023-11-21T13:21:04;22.23;;;9.32;;
80647;SDS011;70012;0.000;0.000;2023-11-21T13:23:41;26.85;;;9.98;;
80647;SDS011;70012;0.000;0.000;2023-11-21T13:26:12;23.75;;;9.73;;
80647;SDS011;70012;0.000;0.000;2023-11-21T13:28:42;21.90;;;9.90;;
80647;SDS011;70012;0.000;0.000;2023-11-21T13:31:13;24.58;;;10.40;;
80647;SDS011;70012;0.000;0.000;2023-11-21T13:33:55;26.27;;;10.65;;
80647;SDS011;70012;0.000;0.000;2023-11-21T13:36:37;23.70;;;9.75;;
80647;SDS011;70012;0.000;0.000;2023-11-21T13:39:04;22.88;;;11.38;;
80647;SDS011;70012;0.000;0.000;2023-11-21T13:41:35;19.88;;;10.18;;
80647;SDS011;70012;0.000;0.000;2023-11-21T13:44:05;21.98;;;9.35;;
80647;SDS011;70012;0.000;0.000;2023-11-21T13:46:53;20.45;;;9.13;;
80647;SDS011;70012;0.000;0.000;2023-11-21T13:49:22;25.50;;;9.90;;
80647;SDS011;70012;0.000;0.000;2023-11-21T13:54:19;20.55;;;8.77;;
80647;SDS011;70012;0.000;0.000;2023-11-21T13:56:48;21.10;;;8.57;;
80647;SDS011;70012;0.000;0.000;2023-11-21T13:59:16;24.75;;;9.55;;
80647;SDS011;70012;0.000;0.000;2023-11-21T14:01:50;22.25;;;9.25;;
80647;SDS011;70012;0.000;0.000;2023-11-21T14:04:22;19.45;;;8.82;;
80647;SDS011;70012;0.000;0.000;2023-11-21T14:07:07;19.70;;;7.75;;
80647;SDS011;70012;0.000;0.000;2023-11-21T14:09:49;16.40;;;7.28;;
80647;SDS011;70012;0.000;0.000;2023-11-21T14:12:16;14.10;;;6.72;;
80647;SDS011;70012;0.000;0.000;2023-11-21T14:14:43;16.75;;;6.75;;
80647;SDS011;70012;0.000;0.000;2023-11-21T14:17:11;16.27;;;6.65;;
80647;SDS011;70012;0.000;0.000;2023-11-21T14:19:38;16.13;;;6.78;;
80647;SDS011;70012;0.000;0.000;2023-11-21T14:22:10;19.02;;;7.93;;
80647;SDS011;70012;0.000;0.000;2023-11-21T14:24:37;18.23;;;7.53;;
80647;SDS011;70012;0.000;0.000;2023-11-21T14:27:10;16.95;;;8.65;;
80647;SDS011;70012;0.000;0.000;2023-11-21T14:29:37;17.73;;;7.80;;
80647;SDS011;70012;0.000;0.000;2023-11-21T14:32:06;21.15;;;6.80;;
80647;SDS011;70012;0.000;0.000;2023-11-21T14:34:34;19.58;;;7.22;;
80647;SDS011;70012;0.000;0.000;2023-11-21T14:37:01;15.27;;;7.32;;
80647;SDS011;70012;0.000;0.000;2023-11-21T14:39:29;22.05;;;8.48;;
80647;SDS011;70012;0.000;0.000;2023-11-21T14:41:57;19.73;;;7.55;;
80647;SDS011;70012;0.000;0.000;2023-11-21T14:44:24;18.75;;;8.15;;
80647;SDS011;70012;0.000;0.000;2023-11-21T14:46:52;17.08;;;7.60;;
80647;SDS011;70012;0.000;0.000;2023-11-21T14:49:23;21.77;;;8.82;;
80647;SDS011;70012;0.000;0.000;2023-11-21T14:51:54;18.67;;;9.13;;
80647;SDS011;70012;0.000;0.000;2023-11-21T14:54:24;20.85;;;9.18;;
80647;SDS011;70012;0.000;0.000;2023-11-21T14:57:11;23.15;;;9.35;;
80647;SDS011;70012;0.000;0.000;2023-11-21T14:59:45;20.60;;;8.10;;
80647;SDS011;70012;0.000;0.000;2023-11-21T15:02:15;19.90;;;8.43;;
80647;SDS011;70012;0.000;0.000;2023-11-21T15:04:42;19.23;;;8.65;;
80647;SDS011;70012;0.000;0.000;2023-11-21T15:07:10;22.65;;;7.32;;
80647;SDS011;70012;0.000;0.000;2023-11-21T15:09:38;22.67;;;9.23;;
80647;SDS011;70012;0.000;0.000;2023-11-21T15:12:08;23.42;;;7.82;;
80647;SDS011;70012;0.000;0.000;2023-11-21T15:17:12;19.60;;;7.90;;
80647;SDS011;70012;0.000;0.000;2023-11-21T15:19:45;16.48;;;7.45;;
80647;SDS011;70012;0.000;0.000;2023-11-21T15:22:12;25.92;;;9.43;;
80647;SDS011;70012;0.000;0.000;2023-11-21T15:24:42;17.75;;;7.80;;
80647;SDS011;70012;0.000;0.000;2023-11-21T15:27:12;23.08;;;8.43;;
80647;SDS011;70012;0.000;0.000;2023-11-21T15:29:40;21.98;;;8.23;;
80647;SDS011;70012;0.000;0.000;2023-11-21T15:32:08;24.83;;;9.05;;
80647;SDS011;70012;0.000;0.000;2023-11-21T15:34:36;20.00;;;8.27;;
80647;SDS011;70012;0.000;0.000;2023-11-21T15:37:08;18.27;;;7.82;;
80647;SDS011;70012;0.000;0.000;2023-11-21T15:39:39;12.82;;;6.82;;
80647;SDS011;70012;0.000;0.000;2023-11-21T15:42:08;17.25;;;7.88;;
80647;SDS011;70012;0.000;0.000;2023-11-21T15:44:37;21.30;;;9.15;;
80647;SDS011;70012;0.000;0.000;2023-11-21T15:47:04;21.73;;;7.93;;
80647;SDS011;70012;0.000;0.000;2023-11-21T15:49:31;20.58;;;8.35;;
80647;SDS011;70012;0.000;0.000;2023-11-21T15:52:15;16.05;;;6.97;;
80647;SDS011;70012;0.000;0.000;2023-11-21T15:54:45;22.45;;;9.48;;
80647;SDS011;70012;0.000;0.000;2023-11-21T15:57:15;19.48;;;7.75;;
80647;SDS011;70012;0.000;0.000;2023-11-21T15:59:43;17.65;;;8.02;;
80647;SDS011;70012;0.000;0.000;2023-11-21T16:02:11;26.63;;;9.57;;
80647;SDS011;70012;0.000;0.000;2023-11-21T16:04:39;23.40;;;8.90;;
80647;SDS011;70012;0.000;0.000;2023-11-21T16:07:08;20.85;;;8.10;;
80647;SDS011;70012;0.000;0.000;2023-11-21T16:09:36;26.25;;;10.13;;
80647;SDS011;70012;0.000;0.000;2023-11-21T16:12:05;24.13;;;10.15;;
80647;SDS011;70012;0.000;0.000;2023-11-21T16:14:34;23.45;;;10.65;;
80647;SDS011;70012;0.000;0.000;2023-11-21T16:17:10;22.58;;;9.63;;
80647;SDS011;70012;0.000;0.000;2023-11-21T16:19:37;26.60;;;10.77;;
80647;SDS011;70012;0.000;0.000;2023-11-21T16:22:06;22.40;;;9.32;;
80647;SDS011;70012;0.000;0.000;2023-11-21T16:24:34;18.13;;;10.23;;
80647;SDS011;70012;0.000;0.000;2023-11-21T16:27:01;24.13;;;10.88;;